sensor_id;sensor_type;location;lat;lon;timestamp;temperature;humidity
2435;DHT22;1228;51.022;6.764;2024-03-02T00:01:41;7.80;99.90
2435;DHT22;1228;51.022;6.764;2024-03-02T00:04:07;7.80;99.90
2435;DHT22;1228;51.022;6.764;2024-03-02T00:06:33;7.80;99.90
2435;DHT22;1228;51.022;6.764;2024-03-02T00:08:59;7.80;99.90
2435;DHT22;1228;51.022;6.764;2024-03-02T00:11:25;7.70;99.90
2435;DHT22;1228;51.022;6.764;2024-03-02T00:13:52;7.70;99.90
2435;DHT22;1228;51.022;6.764;2024-03-02T00:16:18;7.70;99.90
2435;DHT22;1228;51.022;6.764;2024-03-02T00:18:45;7.70;99.90
2435;DHT22;1228;51.022;6.764;2024-03-02T00:21:11;7.70;99.90
2435;DHT22;1228;51.022;6.764;2024-03-02T00:23:38;7.70;99.90
2435;DHT22;1228;51.022;6.764;2024-03-02T00:26:05;7.70;99.90
2435;DHT22;1228;51.022;6.764;2024-03-02T00:28:35;7.70;99.90
2435;DHT22;1228;51.022;6.764;2024-03-02T00:31:12;7.80;99.90
2435;DHT22;1228;51.022;6.764;2024-03-02T00:33:44;7.80;99.90
2435;DHT22;1228;51.022;6.764;2024-03-02T00:36:14;7.90;99.90
2435;DHT22;1228;51.022;6.764;2024-03-02T00:38:51;8.00;99.90
2435;DHT22;1228;51.022;6.764;2024-03-02T00:41:34;8.00;99.90
2435;DHT22;1228;51.022;6.764;2024-03-02T00:44:15;8.10;99.90
2435;DHT22;1228;51.022;6.764;2024-03-02T00:46:42;8.10;99.90
2435;DHT22;1228;51.022;6.764;2024-03-02T00:51:40;8.20;99.90
2435;DHT22;1228;51.022;6.764;2024-03-02T00:54:08;8.20;99.90
2435;DHT22;1228;51.022;6.764;2024-03-02T00:56:35;8.20;99.90
2435;DHT22;1228;51.022;6.764;2024-03-02T00:59:01;8.20;99.90
2435;DHT22;1228;51.022;6.764;2024-03-02T01:01:26;8.20;99.90
2435;DHT22;1228;51.022;6.764;2024-03-02T01:03:52;8.10;99.90
2435;DHT22;1228;51.022;6.764;2024-03-02T01:06:18;8.10;99.90
2435;DHT22;1228;51.022;6.764;2024-03-02T01:08:44;8.10;99.90
2435;DHT22;1228;51.022;6.764;2024-03-02T01:11:10;8.00;99.90
2435;DHT22;1228;51.022;6.764;2024-03-02T01:13:36;7.90;99.90
2435;DHT22;1228;51.022;6.764;2024-03-02T01:16:02;7.90;99.90
2435;DHT22;1228;51.022;6.764;2024-03-02T01:18:28;7.80;99.90
2435;DHT22;1228;51.022;6.764;2024-03-02T01:20:53;7.80;99.90
2435;DHT22;1228;51.022;6.764;2024-03-02T01:23:24;7.80;99.90
2435;DHT22;1228;51.022;6.764;2024-03-02T01:25:51;7.80;99.90
2435;DHT22;1228;51.022;6.764;2024-03-02T01:28:18;7.80;99.90
2435;DHT22;1228;51.022;6.764;2024-03-02T01:30:44;7.90;99.90
2435;DHT22;1228;51.022;6.764;2024-03-02T01:33:10;7.90;99.90
2435;DHT22;1228;51.022;6.764;2024-03-02T01:35:36;8.00;99.90
2435;DHT22;1228;51.022;6.764;2024-03-02T01:38:02;8.10;99.90
2435;DHT22;1228;51.022;6.764;2024-03-02T01:40:28;8.10;99.90
2435;DHT22;1228;51.022;6.764;2024-03-02T01:42:54;8.10;99.90
2435;DHT22;1228;51.022;6.764;2024-03-02T01:45:21;8.20;99.90
2435;DHT22;1228;51.022;6.764;2024-03-02T01:47:47;8.10;99.90
2435;DHT22;1228;51.022;6.764;2024-03-02T01:50:13;8.20;99.90
2435;DHT22;1228;51.022;6.764;2024-03-02T01:52:39;8.20;99.90
2435;DHT22;1228;51.022;6.764;2024-03-02T01:55:06;8.20;99.90
2435;DHT22;1228;51.022;6.764;2024-03-02T01:57:33;8.30;99.90
2435;DHT22;1228;51.022;6.764;2024-03-02T02:00:00;8.30;99.90
2435;DHT22;1228;51.022;6.764;2024-03-02T02:02:26;8.30;99.90
2435;DHT22;1228;51.022;6.764;2024-03-02T02:04:51;8.20;99.90
2435;DHT22;1228;51.022;6.764;2024-03-02T02:07:17;8.20;99.90
2435;DHT22;1228;51.022;6.764;2024-03-02T02:09:42;8.20;99.90
2435;DHT22;1228;51.022;6.764;2024-03-02T02:12:09;8.10;99.90
2435;DHT22;1228;51.022;6.764;2024-03-02T02:14:35;8.10;99.90
2435;DHT22;1228;51.022;6.764;2024-03-02T02:17:01;8.00;99.90
2435;DHT22;1228;51.022;6.764;2024-03-02T02:19:27;8.00;99.90
2435;DHT22;1228;51.022;6.764;2024-03-02T02:21:52;8.10;99.90
2435;DHT22;1228;51.022;6.764;2024-03-02T02:24:18;8.10;99.90
2435;DHT22;1228;51.022;6.764;2024-03-02T02:26:43;8.10;99.90
2435;DHT22;1228;51.022;6.764;2024-03-02T02:29:09;8.20;99.90
2435;DHT22;1228;51.022;6.764;2024-03-02T02:31:42;8.20;99.90
2435;DHT22;1228;51.022;6.764;2024-03-02T02:34:07;8.20;99.90
2435;DHT22;1228;51.022;6.764;2024-03-02T02:36:39;8.30;99.90
2435;DHT22;1228;51.022;6.764;2024-03-02T02:39:07;8.30;99.90
2435;DHT22;1228;51.022;6.764;2024-03-02T02:41:36;8.30;99.90
2435;DHT22;1228;51.022;6.764;2024-03-02T02:44:01;8.30;99.90
2435;DHT22;1228;51.022;6.764;2024-03-02T02:46:27;8.30;99.90
2435;DHT22;1228;51.022;6.764;2024-03-02T02:48:52;8.30;99.90
2435;DHT22;1228;51.022;6.764;2024-03-02T02:51:19;8.30;99.90
2435;DHT22;1228;51.022;6.764;2024-03-02T02:53:44;8.30;99.90
2435;DHT22;1228;51.022;6.764;2024-03-02T02:56:10;8.20;99.90
2435;DHT22;1228;51.022;6.764;2024-03-02T02:58:36;8.20;99.90
2435;DHT22;1228;51.022;6.764;2024-03-02T03:01:02;8.10;99.90
2435;DHT22;1228;51.022;6.764;2024-03-02T03:03:27;8.10;99.90
2435;DHT22;1228;51.022;6.764;2024-03-02T03:05:53;8.10;99.90
2435;DHT22;1228;51.022;6.764;2024-03-02T03:08:18;8.10;99.90
2435;DHT22;1228;51.022;6.764;2024-03-02T03:10:44;8.20;99.90
2435;DHT22;1228;51.022;6.764;2024-03-02T03:13:10;8.20;99.90
2435;DHT22;1228;51.022;6.764;2024-03-02T03:15:36;8.20;99.90
2435;DHT22;1228;51.022;6.764;2024-03-02T03:18:03;8.20;99.90
2435;DHT22;1228;51.022;6.764;2024-03-02T03:20:29;8.20;99.90
2435;DHT22;1228;51.022;6.764;2024-03-02T03:22:55;8.20;99.90
2435;DHT22;1228;51.022;6.764;2024-03-02T03:25:21;8.20;99.90
2435;DHT22;1228;51.022;6.764;2024-03-02T03:27:47;8.20;99.90
2435;DHT22;1228;51.022;6.764;2024-03-02T03:30:12;8.20;99.90
2435;DHT22;1228;51.022;6.764;2024-03-02T03:32:38;8.20;99.90
2435;DHT22;1228;51.022;6.764;2024-03-02T03:35:04;8.20;99.90
2435;DHT22;1228;51.022;6.764;2024-03-02T03:37:31;8.20;99.90
2435;DHT22;1228;51.022;6.764;2024-03-02T03:39:59;8.10;99.90
2435;DHT22;1228;51.022;6.764;2024-03-02T03:42:24;8.10;99.90
2435;DHT22;1228;51.022;6.764;2024-03-02T03:44:50;8.10;99.90
2435;DHT22;1228;51.022;6.764;2024-03-02T03:47:16;8.10;99.90
2435;DHT22;1228;51.022;6.764;2024-03-02T03:49:41;8.00;99.90
2435;DHT22;1228;51.022;6.764;2024-03-02T03:52:07;8.00;99.90
2435;DHT22;1228;51.022;6.764;2024-03-02T03:54:32;7.90;99.90
2435;DHT22;1228;51.022;6.764;2024-03-02T03:56:58;7.80;99.90
2435;DHT22;1228;51.022;6.764;2024-03-02T03:59:24;7.80;99.90
2435;DHT22;1228;51.022;6.764;2024-03-02T04:01:49;7.70;99.90
2435;DHT22;1228;51.022;6.764;2024-03-02T04:04:15;7.60;99.90
2435;DHT22;1228;51.022;6.764;2024-03-02T04:06:40;7.60;99.90
2435;DHT22;1228;51.022;6.764;2024-03-02T04:09:06;7.50;99.90
2435;DHT22;1228;51.022;6.764;2024-03-02T04:11:32;7.40;99.90
2435;DHT22;1228;51.022;6.764;2024-03-02T04:13:58;7.40;1.00
2435;DHT22;1228;51.022;6.764;2024-03-02T04:16:24;7.30;1.00
2435;DHT22;1228;51.022;6.764;2024-03-02T04:18:49;7.20;1.00
2435;DHT22;1228;51.022;6.764;2024-03-02T04:21:15;7.10;1.00
2435;DHT22;1228;51.022;6.764;2024-03-02T04:23:40;7.00;1.00
2435;DHT22;1228;51.022;6.764;2024-03-02T04:26:06;7.00;1.00
2435;DHT22;1228;51.022;6.764;2024-03-02T04:28:31;6.90;1.00
2435;DHT22;1228;51.022;6.764;2024-03-02T04:30:58;6.90;1.00
2435;DHT22;1228;51.022;6.764;2024-03-02T04:33:23;6.80;99.90
2435;DHT22;1228;51.022;6.764;2024-03-02T04:35:49;6.90;42.90
2435;DHT22;1228;51.022;6.764;2024-03-02T04:38:14;6.80;1.00
2435;DHT22;1228;51.022;6.764;2024-03-02T04:40:40;6.80;1.00
2435;DHT22;1228;51.022;6.764;2024-03-02T04:43:06;6.80;1.00
2435;DHT22;1228;51.022;6.764;2024-03-02T04:45:33;6.70;1.00
2435;DHT22;1228;51.022;6.764;2024-03-02T04:47:59;6.60;1.00
2435;DHT22;1228;51.022;6.764;2024-03-02T04:50:25;6.50;1.00
2435;DHT22;1228;51.022;6.764;2024-03-02T04:52:50;6.50;1.00
2435;DHT22;1228;51.022;6.764;2024-03-02T04:55:16;6.40;1.00
2435;DHT22;1228;51.022;6.764;2024-03-02T04:57:41;6.40;1.00
2435;DHT22;1228;51.022;6.764;2024-03-02T05:00:07;6.40;1.00
2435;DHT22;1228;51.022;6.764;2024-03-02T05:02:34;6.40;1.00
2435;DHT22;1228;51.022;6.764;2024-03-02T05:05:00;6.40;1.00
2435;DHT22;1228;51.022;6.764;2024-03-02T05:07:26;6.40;1.00
2435;DHT22;1228;51.022;6.764;2024-03-02T05:09:51;6.40;1.00
2435;DHT22;1228;51.022;6.764;2024-03-02T05:12:17;6.40;1.00
2435;DHT22;1228;51.022;6.764;2024-03-02T05:14:43;6.40;1.00
2435;DHT22;1228;51.022;6.764;2024-03-02T05:17:08;6.50;1.00
2435;DHT22;1228;51.022;6.764;2024-03-02T05:19:34;6.40;1.00
2435;DHT22;1228;51.022;6.764;2024-03-02T05:21:59;6.40;1.00
2435;DHT22;1228;51.022;6.764;2024-03-02T05:24:25;6.40;1.00
2435;DHT22;1228;51.022;6.764;2024-03-02T05:26:53;6.40;1.00
2435;DHT22;1228;51.022;6.764;2024-03-02T05:29:18;6.40;1.00
2435;DHT22;1228;51.022;6.764;2024-03-02T05:31:44;6.40;1.00
2435;DHT22;1228;51.022;6.764;2024-03-02T05:34:10;6.40;1.00
2435;DHT22;1228;51.022;6.764;2024-03-02T05:36:35;6.40;1.00
2435;DHT22;1228;51.022;6.764;2024-03-02T05:39:01;6.40;1.00
2435;DHT22;1228;51.022;6.764;2024-03-02T05:41:30;6.40;1.00
2435;DHT22;1228;51.022;6.764;2024-03-02T05:43:55;6.40;1.00
2435;DHT22;1228;51.022;6.764;2024-03-02T05:46:21;6.40;1.00
2435;DHT22;1228;51.022;6.764;2024-03-02T05:48:47;6.40;1.00
2435;DHT22;1228;51.022;6.764;2024-03-02T05:51:13;6.40;1.00
2435;DHT22;1228;51.022;6.764;2024-03-02T05:53:38;6.40;1.00
2435;DHT22;1228;51.022;6.764;2024-03-02T05:56:05;6.40;1.00
2435;DHT22;1228;51.022;6.764;2024-03-02T05:58:30;6.40;1.00
2435;DHT22;1228;51.022;6.764;2024-03-02T06:01:13;6.40;1.00
2435;DHT22;1228;51.022;6.764;2024-03-02T06:03:38;6.40;1.00
2435;DHT22;1228;51.022;6.764;2024-03-02T06:06:04;6.40;1.00
2435;DHT22;1228;51.022;6.764;2024-03-02T06:08:30;6.40;1.00
2435;DHT22;1228;51.022;6.764;2024-03-02T06:10:56;6.50;1.00
2435;DHT22;1228;51.022;6.764;2024-03-02T06:13:22;6.50;1.00
2435;DHT22;1228;51.022;6.764;2024-03-02T06:15:48;6.60;1.00
2435;DHT22;1228;51.022;6.764;2024-03-02T06:18:14;6.70;1.00
2435;DHT22;1228;51.022;6.764;2024-03-02T06:20:39;6.80;1.00
2435;DHT22;1228;51.022;6.764;2024-03-02T06:23:05;6.80;1.00
2435;DHT22;1228;51.022;6.764;2024-03-02T06:25:30;6.90;1.00
2435;DHT22;1228;51.022;6.764;2024-03-02T06:27:56;6.90;1.00
2435;DHT22;1228;51.022;6.764;2024-03-02T06:30:22;6.90;1.00
2435;DHT22;1228;51.022;6.764;2024-03-02T06:32:47;6.90;1.00
2435;DHT22;1228;51.022;6.764;2024-03-02T06:35:13;6.90;1.00
2435;DHT22;1228;51.022;6.764;2024-03-02T06:37:39;6.90;1.00
2435;DHT22;1228;51.022;6.764;2024-03-02T06:40:08;6.90;1.00
2435;DHT22;1228;51.022;6.764;2024-03-02T06:42:34;6.90;1.00
2435;DHT22;1228;51.022;6.764;2024-03-02T06:45:01;6.90;1.00
2435;DHT22;1228;51.022;6.764;2024-03-02T06:47:26;6.90;1.00
2435;DHT22;1228;51.022;6.764;2024-03-02T06:49:52;7.00;1.00
2435;DHT22;1228;51.022;6.764;2024-03-02T06:52:18;7.00;1.00
2435;DHT22;1228;51.022;6.764;2024-03-02T06:54:44;7.10;99.90
2435;DHT22;1228;51.022;6.764;2024-03-02T06:57:09;7.20;99.90
2435;DHT22;1228;51.022;6.764;2024-03-02T06:59:35;7.30;99.90
2435;DHT22;1228;51.022;6.764;2024-03-02T07:02:01;7.40;99.90
2435;DHT22;1228;51.022;6.764;2024-03-02T07:04:27;7.60;99.90
2435;DHT22;1228;51.022;6.764;2024-03-02T07:06:52;7.70;99.90
2435;DHT22;1228;51.022;6.764;2024-03-02T07:09:18;7.80;99.90
2435;DHT22;1228;51.022;6.764;2024-03-02T07:11:48;7.90;99.90
2435;DHT22;1228;51.022;6.764;2024-03-02T07:14:13;8.00;99.90
2435;DHT22;1228;51.022;6.764;2024-03-02T07:16:39;8.10;99.90
2435;DHT22;1228;51.022;6.764;2024-03-02T07:19:06;8.20;99.90
2435;DHT22;1228;51.022;6.764;2024-03-02T07:21:32;8.30;99.90
2435;DHT22;1228;51.022;6.764;2024-03-02T07:23:58;8.40;99.90
2435;DHT22;1228;51.022;6.764;2024-03-02T07:26:24;8.60;99.90
2435;DHT22;1228;51.022;6.764;2024-03-02T07:28:50;8.80;99.90
2435;DHT22;1228;51.022;6.764;2024-03-02T07:31:17;9.00;99.90
2435;DHT22;1228;51.022;6.764;2024-03-02T07:33:45;9.30;99.90
2435;DHT22;1228;51.022;6.764;2024-03-02T07:36:14;9.50;99.90
2435;DHT22;1228;51.022;6.764;2024-03-02T07:38:40;9.60;99.90
2435;DHT22;1228;51.022;6.764;2024-03-02T07:41:07;9.80;99.90
2435;DHT22;1228;51.022;6.764;2024-03-02T07:43:33;9.90;99.90
2435;DHT22;1228;51.022;6.764;2024-03-02T07:45:59;10.20;99.90
2435;DHT22;1228;51.022;6.764;2024-03-02T07:48:25;10.50;99.90
2435;DHT22;1228;51.022;6.764;2024-03-02T07:50:51;10.80;99.90
2435;DHT22;1228;51.022;6.764;2024-03-02T07:53:16;11.20;99.90
2435;DHT22;1228;51.022;6.764;2024-03-02T07:55:42;11.40;99.90
2435;DHT22;1228;51.022;6.764;2024-03-02T07:58:08;11.40;99.90
2435;DHT22;1228;51.022;6.764;2024-03-02T08:00:34;11.40;99.90
2435;DHT22;1228;51.022;6.764;2024-03-02T08:03:00;11.30;99.90
2435;DHT22;1228;51.022;6.764;2024-03-02T08:05:26;11.40;99.90
2435;DHT22;1228;51.022;6.764;2024-03-02T08:07:53;11.50;99.90
2435;DHT22;1228;51.022;6.764;2024-03-02T08:10:19;11.70;99.90
2435;DHT22;1228;51.022;6.764;2024-03-02T08:12:45;11.90;99.90
2435;DHT22;1228;51.022;6.764;2024-03-02T08:15:10;12.30;99.90
2435;DHT22;1228;51.022;6.764;2024-03-02T08:17:38;12.60;99.90
2435;DHT22;1228;51.022;6.764;2024-03-02T08:20:06;13.00;99.90
2435;DHT22;1228;51.022;6.764;2024-03-02T08:22:33;13.40;99.90
2435;DHT22;1228;51.022;6.764;2024-03-02T08:24:59;13.70;99.90
2435;DHT22;1228;51.022;6.764;2024-03-02T08:27:24;13.80;99.90
2435;DHT22;1228;51.022;6.764;2024-03-02T08:29:50;13.50;99.90
2435;DHT22;1228;51.022;6.764;2024-03-02T08:32:15;13.00;99.90
2435;DHT22;1228;51.022;6.764;2024-03-02T08:34:42;12.50;99.90
2435;DHT22;1228;51.022;6.764;2024-03-02T08:37:08;12.00;99.90
2435;DHT22;1228;51.022;6.764;2024-03-02T08:39:33;11.70;99.90
2435;DHT22;1228;51.022;6.764;2024-03-02T08:41:59;11.50;99.90
2435;DHT22;1228;51.022;6.764;2024-03-02T08:44:25;11.40;99.90
2435;DHT22;1228;51.022;6.764;2024-03-02T08:46:50;11.40;99.90
2435;DHT22;1228;51.022;6.764;2024-03-02T08:49:16;11.60;99.90
2435;DHT22;1228;51.022;6.764;2024-03-02T08:51:41;12.00;99.90
2435;DHT22;1228;51.022;6.764;2024-03-02T08:54:07;12.60;99.90
2435;DHT22;1228;51.022;6.764;2024-03-02T08:56:32;13.00;99.90
2435;DHT22;1228;51.022;6.764;2024-03-02T08:58:58;13.50;99.90
2435;DHT22;1228;51.022;6.764;2024-03-02T09:01:24;14.00;99.90
2435;DHT22;1228;51.022;6.764;2024-03-02T09:03:50;14.50;99.90
2435;DHT22;1228;51.022;6.764;2024-03-02T09:06:15;14.80;99.90
2435;DHT22;1228;51.022;6.764;2024-03-02T09:08:45;14.70;99.90
2435;DHT22;1228;51.022;6.764;2024-03-02T09:11:11;14.70;99.90
2435;DHT22;1228;51.022;6.764;2024-03-02T09:13:38;14.80;99.90
2435;DHT22;1228;51.022;6.764;2024-03-02T09:16:04;14.80;99.90
2435;DHT22;1228;51.022;6.764;2024-03-02T09:18:30;14.80;99.90
2435;DHT22;1228;51.022;6.764;2024-03-02T09:20:56;14.80;99.90
2435;DHT22;1228;51.022;6.764;2024-03-02T09:23:21;14.80;99.90
2435;DHT22;1228;51.022;6.764;2024-03-02T09:25:47;15.00;99.90
2435;DHT22;1228;51.022;6.764;2024-03-02T09:28:13;15.10;99.90
2435;DHT22;1228;51.022;6.764;2024-03-02T09:30:40;15.20;99.90
2435;DHT22;1228;51.022;6.764;2024-03-02T09:33:06;15.10;99.90
2435;DHT22;1228;51.022;6.764;2024-03-02T09:35:32;14.90;99.90
2435;DHT22;1228;51.022;6.764;2024-03-02T09:37:57;14.90;99.90
2435;DHT22;1228;51.022;6.764;2024-03-02T09:40:23;15.10;99.90
2435;DHT22;1228;51.022;6.764;2024-03-02T09:42:49;15.10;99.90
2435;DHT22;1228;51.022;6.764;2024-03-02T09:45:23;15.20;99.90
2435;DHT22;1228;51.022;6.764;2024-03-02T09:47:49;15.00;99.90
2435;DHT22;1228;51.022;6.764;2024-03-02T09:50:14;15.10;99.90
2435;DHT22;1228;51.022;6.764;2024-03-02T09:52:42;15.30;99.90
2435;DHT22;1228;51.022;6.764;2024-03-02T09:55:08;15.60;99.90
2435;DHT22;1228;51.022;6.764;2024-03-02T09:57:34;15.90;99.90
2435;DHT22;1228;51.022;6.764;2024-03-02T09:59:59;15.70;99.90
2435;DHT22;1228;51.022;6.764;2024-03-02T10:02:25;15.60;99.90
2435;DHT22;1228;51.022;6.764;2024-03-02T10:04:51;15.50;99.90
2435;DHT22;1228;51.022;6.764;2024-03-02T10:07:18;15.50;99.90
2435;DHT22;1228;51.022;6.764;2024-03-02T10:09:48;15.60;99.90
2435;DHT22;1228;51.022;6.764;2024-03-02T10:12:15;15.60;99.90
2435;DHT22;1228;51.022;6.764;2024-03-02T10:14:41;15.60;99.90
2435;DHT22;1228;51.022;6.764;2024-03-02T10:17:09;15.50;99.90
2435;DHT22;1228;51.022;6.764;2024-03-02T10:19:35;15.60;99.90
2435;DHT22;1228;51.022;6.764;2024-03-02T10:22:09;15.50;99.90
2435;DHT22;1228;51.022;6.764;2024-03-02T10:24:37;15.60;99.90
2435;DHT22;1228;51.022;6.764;2024-03-02T10:27:10;15.70;99.90
2435;DHT22;1228;51.022;6.764;2024-03-02T10:29:39;15.80;99.90
2435;DHT22;1228;51.022;6.764;2024-03-02T10:32:09;15.80;99.90
2435;DHT22;1228;51.022;6.764;2024-03-02T10:34:36;15.70;99.90
2435;DHT22;1228;51.022;6.764;2024-03-02T10:37:02;15.50;99.90
2435;DHT22;1228;51.022;6.764;2024-03-02T10:39:28;15.60;99.90
2435;DHT22;1228;51.022;6.764;2024-03-02T10:41:56;15.70;99.90
2435;DHT22;1228;51.022;6.764;2024-03-02T10:44:23;15.50;99.90
2435;DHT22;1228;51.022;6.764;2024-03-02T10:46:49;15.50;99.90
2435;DHT22;1228;51.022;6.764;2024-03-02T10:49:19;15.60;99.90
2435;DHT22;1228;51.022;6.764;2024-03-02T10:51:46;15.40;99.90
2435;DHT22;1228;51.022;6.764;2024-03-02T10:54:12;15.50;99.90
2435;DHT22;1228;51.022;6.764;2024-03-02T10:56:42;15.40;99.90
2435;DHT22;1228;51.022;6.764;2024-03-02T10:59:17;15.40;99.90
2435;DHT22;1228;51.022;6.764;2024-03-02T11:01:50;15.50;99.90
2435;DHT22;1228;51.022;6.764;2024-03-02T11:04:19;15.50;99.90
2435;DHT22;1228;51.022;6.764;2024-03-02T11:06:51;15.50;99.90
2435;DHT22;1228;51.022;6.764;2024-03-02T11:09:26;15.30;99.90
2435;DHT22;1228;51.022;6.764;2024-03-02T11:12:18;15.20;99.90
2435;DHT22;1228;51.022;6.764;2024-03-02T11:14:44;15.20;99.90
2435;DHT22;1228;51.022;6.764;2024-03-02T11:17:11;15.30;99.90
2435;DHT22;1228;51.022;6.764;2024-03-02T11:19:39;15.30;99.90
2435;DHT22;1228;51.022;6.764;2024-03-02T11:22:06;15.40;99.90
2435;DHT22;1228;51.022;6.764;2024-03-02T11:24:33;15.40;99.90
2435;DHT22;1228;51.022;6.764;2024-03-02T11:27:02;15.40;99.90
2435;DHT22;1228;51.022;6.764;2024-03-02T11:32:21;15.60;99.90
2435;DHT22;1228;51.022;6.764;2024-03-02T11:34:50;15.90;99.90
2435;DHT22;1228;51.022;6.764;2024-03-02T11:37:17;16.10;99.90
2435;DHT22;1228;51.022;6.764;2024-03-02T11:39:44;16.30;99.90
2435;DHT22;1228;51.022;6.764;2024-03-02T11:42:11;16.40;99.90
2435;DHT22;1228;51.022;6.764;2024-03-02T11:44:39;16.30;99.90
2435;DHT22;1228;51.022;6.764;2024-03-02T11:47:08;16.40;99.90
2435;DHT22;1228;51.022;6.764;2024-03-02T11:52:11;16.60;99.90
2435;DHT22;1228;51.022;6.764;2024-03-02T11:54:38;16.50;99.90
2435;DHT22;1228;51.022;6.764;2024-03-02T11:57:12;16.50;99.90
2435;DHT22;1228;51.022;6.764;2024-03-02T11:59:38;16.50;99.90
2435;DHT22;1228;51.022;6.764;2024-03-02T12:02:03;16.40;99.90
2435;DHT22;1228;51.022;6.764;2024-03-02T12:04:30;16.10;99.90
2435;DHT22;1228;51.022;6.764;2024-03-02T12:07:00;15.70;99.90
2435;DHT22;1228;51.022;6.764;2024-03-02T12:09:29;15.60;99.90
2435;DHT22;1228;51.022;6.764;2024-03-02T12:12:05;15.60;99.90
2435;DHT22;1228;51.022;6.764;2024-03-02T12:14:32;15.50;99.90
2435;DHT22;1228;51.022;6.764;2024-03-02T12:16:58;15.40;99.90
2435;DHT22;1228;51.022;6.764;2024-03-02T12:19:27;15.30;99.90
2435;DHT22;1228;51.022;6.764;2024-03-02T12:21:58;15.30;99.90
2435;DHT22;1228;51.022;6.764;2024-03-02T12:24:28;15.50;99.90
2435;DHT22;1228;51.022;6.764;2024-03-02T12:26:54;15.60;99.90
2435;DHT22;1228;51.022;6.764;2024-03-02T12:29:21;15.70;99.90
2435;DHT22;1228;51.022;6.764;2024-03-02T12:31:51;15.80;99.90
2435;DHT22;1228;51.022;6.764;2024-03-02T12:34:18;15.80;99.90
2435;DHT22;1228;51.022;6.764;2024-03-02T12:36:47;15.80;99.90
2435;DHT22;1228;51.022;6.764;2024-03-02T12:39:18;15.80;99.90
2435;DHT22;1228;51.022;6.764;2024-03-02T12:41:43;15.80;99.90
2435;DHT22;1228;51.022;6.764;2024-03-02T12:44:09;15.70;99.90
2435;DHT22;1228;51.022;6.764;2024-03-02T12:46:35;15.60;99.90
2435;DHT22;1228;51.022;6.764;2024-03-02T12:49:11;15.50;99.90
2435;DHT22;1228;51.022;6.764;2024-03-02T12:51:39;15.50;99.90
2435;DHT22;1228;51.022;6.764;2024-03-02T12:54:06;15.40;99.90
2435;DHT22;1228;51.022;6.764;2024-03-02T12:56:32;15.30;99.90
2435;DHT22;1228;51.022;6.764;2024-03-02T12:58:59;15.40;99.90
2435;DHT22;1228;51.022;6.764;2024-03-02T13:01:25;15.40;99.90
2435;DHT22;1228;51.022;6.764;2024-03-02T13:03:52;15.40;99.90
2435;DHT22;1228;51.022;6.764;2024-03-02T13:06:19;15.50;99.90
2435;DHT22;1228;51.022;6.764;2024-03-02T13:08:45;15.40;99.90
2435;DHT22;1228;51.022;6.764;2024-03-02T13:11:13;15.40;99.90
2435;DHT22;1228;51.022;6.764;2024-03-02T13:13:39;15.30;99.90
2435;DHT22;1228;51.022;6.764;2024-03-02T13:16:12;15.30;99.90
2435;DHT22;1228;51.022;6.764;2024-03-02T13:18:41;15.30;99.90
2435;DHT22;1228;51.022;6.764;2024-03-02T13:21:08;15.30;99.90
2435;DHT22;1228;51.022;6.764;2024-03-02T13:23:34;15.30;99.90
2435;DHT22;1228;51.022;6.764;2024-03-02T13:25:59;15.40;99.90
2435;DHT22;1228;51.022;6.764;2024-03-02T13:28:25;15.50;99.90
2435;DHT22;1228;51.022;6.764;2024-03-02T13:30:51;15.60;99.90
2435;DHT22;1228;51.022;6.764;2024-03-02T13:33:17;15.60;99.90
2435;DHT22;1228;51.022;6.764;2024-03-02T13:35:50;15.40;99.90
2435;DHT22;1228;51.022;6.764;2024-03-02T13:38:20;15.20;99.90
2435;DHT22;1228;51.022;6.764;2024-03-02T13:40:47;15.10;99.90
2435;DHT22;1228;51.022;6.764;2024-03-02T13:43:17;15.00;99.90
2435;DHT22;1228;51.022;6.764;2024-03-02T13:45:44;14.80;99.90
2435;DHT22;1228;51.022;6.764;2024-03-02T13:48:10;14.80;99.90
2435;DHT22;1228;51.022;6.764;2024-03-02T13:50:35;14.80;99.90
2435;DHT22;1228;51.022;6.764;2024-03-02T13:53:01;14.80;99.90
2435;DHT22;1228;51.022;6.764;2024-03-02T13:55:28;14.80;99.90
2435;DHT22;1228;51.022;6.764;2024-03-02T13:57:54;14.90;99.90
2435;DHT22;1228;51.022;6.764;2024-03-02T14:00:19;15.00;99.90
2435;DHT22;1228;51.022;6.764;2024-03-02T14:02:46;15.00;99.90
2435;DHT22;1228;51.022;6.764;2024-03-02T14:05:12;15.00;99.90
2435;DHT22;1228;51.022;6.764;2024-03-02T14:07:39;15.00;99.90
2435;DHT22;1228;51.022;6.764;2024-03-02T14:10:06;14.90;99.90
2435;DHT22;1228;51.022;6.764;2024-03-02T14:12:32;14.90;99.90
2435;DHT22;1228;51.022;6.764;2024-03-02T14:14:57;15.00;99.90
2435;DHT22;1228;51.022;6.764;2024-03-02T14:17:24;15.00;99.90
2435;DHT22;1228;51.022;6.764;2024-03-02T14:19:50;15.10;99.90
2435;DHT22;1228;51.022;6.764;2024-03-02T14:22:17;15.10;99.90
2435;DHT22;1228;51.022;6.764;2024-03-02T14:24:43;15.20;99.90
2435;DHT22;1228;51.022;6.764;2024-03-02T14:27:09;15.30;99.90
2435;DHT22;1228;51.022;6.764;2024-03-02T14:29:34;15.30;99.90
2435;DHT22;1228;51.022;6.764;2024-03-02T14:32:03;15.30;99.90
2435;DHT22;1228;51.022;6.764;2024-03-02T14:34:29;15.20;99.90
2435;DHT22;1228;51.022;6.764;2024-03-02T14:36:55;15.20;99.90
2435;DHT22;1228;51.022;6.764;2024-03-02T14:39:21;15.30;99.90
2435;DHT22;1228;51.022;6.764;2024-03-02T14:41:46;15.30;99.90
2435;DHT22;1228;51.022;6.764;2024-03-02T14:44:12;15.50;99.90
2435;DHT22;1228;51.022;6.764;2024-03-02T14:46:38;15.50;99.90
2435;DHT22;1228;51.022;6.764;2024-03-02T14:49:04;15.40;99.90
2435;DHT22;1228;51.022;6.764;2024-03-02T14:51:29;15.40;99.90
2435;DHT22;1228;51.022;6.764;2024-03-02T14:53:55;15.50;99.90
2435;DHT22;1228;51.022;6.764;2024-03-02T14:56:21;15.50;99.90
2435;DHT22;1228;51.022;6.764;2024-03-02T14:58:47;15.60;99.90
2435;DHT22;1228;51.022;6.764;2024-03-02T15:01:13;15.70;99.90
2435;DHT22;1228;51.022;6.764;2024-03-02T15:03:40;15.90;99.90
2435;DHT22;1228;51.022;6.764;2024-03-02T15:06:05;16.20;99.90
2435;DHT22;1228;51.022;6.764;2024-03-02T15:08:32;16.50;99.90
2435;DHT22;1228;51.022;6.764;2024-03-02T15:10:58;16.50;99.90
2435;DHT22;1228;51.022;6.764;2024-03-02T15:13:25;16.40;99.90
2435;DHT22;1228;51.022;6.764;2024-03-02T15:15:53;16.10;99.90
2435;DHT22;1228;51.022;6.764;2024-03-02T15:18:19;16.00;99.90
2435;DHT22;1228;51.022;6.764;2024-03-02T15:20:44;15.80;99.90
2435;DHT22;1228;51.022;6.764;2024-03-02T15:23:10;15.80;99.90
2435;DHT22;1228;51.022;6.764;2024-03-02T15:25:36;16.20;99.90
2435;DHT22;1228;51.022;6.764;2024-03-02T15:28:01;16.40;99.90
2435;DHT22;1228;51.022;6.764;2024-03-02T15:30:27;16.50;99.90
2435;DHT22;1228;51.022;6.764;2024-03-02T15:32:53;16.30;99.90
2435;DHT22;1228;51.022;6.764;2024-03-02T15:35:18;16.10;99.90
2435;DHT22;1228;51.022;6.764;2024-03-02T15:37:44;15.90;99.90
2435;DHT22;1228;51.022;6.764;2024-03-02T15:40:09;15.70;99.90
2435;DHT22;1228;51.022;6.764;2024-03-02T15:42:36;15.40;99.90
2435;DHT22;1228;51.022;6.764;2024-03-02T15:45:02;15.30;99.90
2435;DHT22;1228;51.022;6.764;2024-03-02T15:47:28;15.20;99.90
2435;DHT22;1228;51.022;6.764;2024-03-02T15:49:53;15.30;99.90
2435;DHT22;1228;51.022;6.764;2024-03-02T15:52:19;15.60;99.90
2435;DHT22;1228;51.022;6.764;2024-03-02T15:54:46;15.90;99.90
2435;DHT22;1228;51.022;6.764;2024-03-02T15:57:12;16.00;99.90
2435;DHT22;1228;51.022;6.764;2024-03-02T15:59:37;16.00;99.90
2435;DHT22;1228;51.022;6.764;2024-03-02T16:02:03;16.00;99.90
2435;DHT22;1228;51.022;6.764;2024-03-02T16:04:29;15.80;99.90
2435;DHT22;1228;51.022;6.764;2024-03-02T16:06:55;15.70;99.90
2435;DHT22;1228;51.022;6.764;2024-03-02T16:09:21;15.50;99.90
2435;DHT22;1228;51.022;6.764;2024-03-02T16:11:46;15.50;99.90
2435;DHT22;1228;51.022;6.764;2024-03-02T16:14:14;15.60;99.90
2435;DHT22;1228;51.022;6.764;2024-03-02T16:16:39;15.60;99.90